Messwerte Pemba

Temperatur

Temperatur
°C
1623621600 0.00 0.00
1623625200 1.00 1.00 22
1623628800 2.00 2.00
1623632400 3.00 3.00 21
1623636000 4.00 4.00 20
1623639600 5.00 5.00 19
1623643200 6.00 6.00 18
1623646800 7.00 7.00 19
1623650400 8.00 8.00 20
1623654000 9.00 9.00 23
1623657600 10.00 10.00 26
1623661200 11.00 11.00 27
1623664800 12.00 12.00
1623668400 13.00 13.00
1623672000 14.00 14.00
1623675600 15.00 15.00
1623679200 16.00 16.00 26
1623682800 17.00 17.00 25
1623686400 18.00 18.00 19
1623690000 19.00 19.00 25
1623693600 20.00 20.00 25
1623697200 21.00 21.00 24
1623700800 22.00 22.00 24
1623704400 23.00 23.00 22

Aktuellste Messwerte

Wettercharakter
Wetter: wechselnd bewölkt
Temperatur
22 °C
Feuchtigkeit
85 %
Wind
15 km/hWindrichtung: Südwest
Luftdruck
1017 hPa
Messzeit: 14. Juni 2021, 23.00Datenquelle: METAR

Weitere Messstationen in der Nähe

Messstation Temperatur Entfernung
Nampula 18 °C 271 km
Hahaya / Comoros - 338 km

Wind

Windrichtung Böen Mittelwind
° km/h km/h
1623621600 0.00 23.00 - 0.00
1623625200 1.00 0.00 - 1.00 190° 10
1623628800 2.00 1.00 - 2.00
1623632400 3.00 2.00 - 3.00 230° 10
1623636000 4.00 3.00 - 4.00 240° 15
1623639600 5.00 4.00 - 5.00 260° 15
1623643200 6.00 5.00 - 6.00 240° 15
1623646800 7.00 6.00 - 7.00 240° 10
1623650400 8.00 7.00 - 8.00 250° 10
1623654000 9.00 8.00 - 9.00 240° 15
1623657600 10.00 9.00 - 10.00 210° 20
1623661200 11.00 10.00 - 11.00 200° 20
1623664800 12.00 11.00 - 12.00
1623668400 13.00 12.00 - 13.00
1623672000 14.00 13.00 - 14.00
1623675600 15.00 14.00 - 15.00
1623679200 16.00 15.00 - 16.00 160° 25
1623682800 17.00 16.00 - 17.00 160° 20
1623686400 18.00 17.00 - 18.00 150° 10
1623690000 19.00 18.00 - 19.00 160° 20
1623693600 20.00 19.00 - 20.00 160° 20
1623697200 21.00 20.00 - 21.00 170° 20
1623700800 22.00 21.00 - 22.00 190° 20
1623704400 23.00 22.00 - 23.00 210° 15

Ihre Wetterstation

Fehlt Ihre Wetterstation auf unserem Portal?

Schreiben Sie an network@meteonews.ch